Time;durP1;ratioP1;P1;durP2;ratioP2;P2;SDS_P1;SDS_P2;PMS_P1;PMS_P2;Temp;Humidity;BMP_temperature;BMP_pressure;BME280_temperature;BME280_humidity;BME280_pressure;Samples;Min_cycle;Max_cycle;Signal;HPM_P1;HPM_P2
2023/01/03 00:01:46;;;;;;;1.03;1.03;;;;;;;4.69;100.00;100509.25;5049877;28;20584;-63
2023/01/03 00:04:13;;;;;;;0.70;0.70;;;;;;;4.67;100.00;100510.06;5048903;28;20225;-63
2023/01/03 00:06:43;;;;;;;0.80;0.80;;;;;;;4.61;100.00;100510.88;5048770;28;20680;-63
2023/01/03 00:09:11;;;;;;;0.50;0.50;;;;;;;4.46;100.00;100486.97;5049639;28;20207;-63
2023/01/03 00:14:27;;;;;;;0.60;0.60;;;;;;;4.55;100.00;100505.72;5049881;28;20215;-63
2023/01/03 00:16:56;;;;;;;1.43;1.43;;;;;;;4.52;100.00;100504.81;5049851;28;20201;-63
2023/01/03 00:19:24;;;;;;;0.97;0.97;;;;;;;4.53;100.00;100502.28;5050414;28;20228;-63
2023/01/03 00:21:51;;;;;;;0.60;0.60;;;;;;;4.49;100.00;100504.78;5053733;28;20267;-63
2023/01/03 00:24:18;;;;;;;0.97;0.97;;;;;;;4.51;100.00;100503.97;5053537;28;20200;-63
2023/01/03 00:26:45;;;;;;;0.60;0.60;;;;;;;4.55;100.00;100509.94;5053370;28;20248;-63
2023/01/03 00:29:12;;;;;;;0.53;0.53;;;;;;;4.55;100.00;100509.94;5051835;28;20578;-63
2023/01/03 00:31:41;;;;;;;0.57;0.57;;;;;;;4.55;100.00;100509.94;5053228;28;20213;-63
2023/01/03 00:34:09;;;;;;;0.80;0.80;;;;;;;4.54;100.00;100508.22;5052997;28;20204;-63
2023/01/03 00:36:36;;;;;;;0.83;0.73;;;;;;;4.36;100.00;100477.56;5053219;28;20541;-63
2023/01/03 00:39:04;;;;;;;0.60;0.60;;;;;;;4.53;100.00;100503.97;5052981;28;20217;-63
2023/01/03 00:41:31;;;;;;;0.50;0.50;;;;;;;4.38;100.00;100486.88;5053152;28;20655;-63
2023/01/03 00:43:58;;;;;;;0.60;0.60;;;;;;;4.43;100.00;100509.75;5052984;28;20573;-63
2023/01/03 00:46:25;;;;;;;0.70;0.70;;;;;;;4.36;100.00;100503.78;5052860;28;20192;-63
2023/01/03 00:48:53;;;;;;;0.60;0.60;;;;;;;4.31;100.00;100504.53;5053191;28;20193;-63
2023/01/03 00:51:21;;;;;;;0.57;0.57;;;;;;;4.20;100.00;100492.56;5052649;28;20212;-63
2023/01/03 00:53:50;;;;;;;0.50;0.50;;;;;;;4.26;100.00;100494.34;5053270;28;20197;-63
2023/01/03 00:56:19;;;;;;;0.50;0.50;;;;;;;4.24;100.00;100498.53;5052562;28;20204;-63
2023/01/03 00:58:47;;;;;;;0.60;0.60;;;;;;;4.22;100.00;100496.00;5053028;28;20220;-63
2023/01/03 01:01:16;;;;;;;0.80;0.80;;;;;;;4.18;100.00;100496.78;5052801;28;20228;-63
2023/01/03 01:03:45;;;;;;;0.60;0.60;;;;;;;4.16;100.00;100490.84;5052185;28;20735;-63
2023/01/03 01:06:17;;;;;;;1.20;1.20;;;;;;;4.08;100.00;100478.88;5052768;28;20630;-63
2023/01/03 01:08:45;;;;;;;0.63;0.63;;;;;;;4.14;100.00;100487.41;5052489;28;20193;-63
2023/01/03 01:11:12;;;;;;;0.50;0.50;;;;;;;4.14;100.00;100491.63;5052617;28;20204;-63
2023/01/03 01:13:39;;;;;;;0.50;0.50;;;;;;;4.13;100.00;100490.81;5052284;28;20197;-63
2023/01/03 01:16:08;;;;;;;0.70;0.70;;;;;;;4.01;100.00;100485.53;5049951;28;20572;-63
2023/01/03 01:18:35;;;;;;;0.50;0.50;;;;;;;4.10;100.00;100489.91;5052313;28;20220;-63
2023/01/03 01:21:04;;;;;;;0.70;0.70;;;;;;;4.10;100.00;100485.66;5052722;28;20196;-63
2023/01/03 01:23:35;;;;;;;1.30;1.13;;;;;;;4.08;100.00;100481.41;5052252;28;20695;-63
2023/01/03 01:26:02;;;;;;;0.73;0.73;;;;;;;4.10;100.00;100475.50;5052267;28;20197;-63
2023/01/03 01:28:29;;;;;;;0.50;0.50;;;;;;;4.10;100.00;100478.06;5052247;28;20197;-63
2023/01/03 01:30:58;;;;;;;0.60;0.60;;;;;;;4.07;100.00;100475.47;5050763;28;20647;-63
2023/01/03 01:33:25;;;;;;;0.50;0.50;;;;;;;4.05;100.00;100467.00;5051915;28;20247;-63
2023/01/03 01:35:52;;;;;;;0.63;0.63;;;;;;;4.05;100.00;100472.06;5051970;28;20259;-63
2023/01/03 01:38:19;;;;;;;0.83;0.83;;;;;;;4.05;100.00;100467.00;5051733;28;20225;-63
2023/01/03 01:40:47;;;;;;;0.60;0.60;;;;;;;4.04;100.00;100470.38;5051990;28;20196;-63
2023/01/03 01:46:07;;;;;;;0.87;0.87;;;;;;;4.01;100.00;100467.78;5051813;28;20272;-63
2023/01/03 01:48:34;;;;;;;0.67;0.67;;;;;;;4.00;100.00;100466.09;5052016;28;20258;-63
2023/01/03 01:51:00;;;;;;;0.50;0.50;;;;;;;3.99;100.00;100463.53;5051645;28;20200;-63
2023/01/03 01:53:30;;;;;;;1.43;1.43;;;;;;;3.97;100.00;100455.91;5052032;28;20204;-64
2023/01/03 01:56:03;;;;;;;0.70;0.70;;;;;;;3.94;100.00;100453.31;5051705;28;20196;-63
2023/01/03 01:58:35;;;;;;;0.50;0.50;;;;;;;3.91;100.00;100458.34;5051761;28;20607;-63
2023/01/03 02:01:04;;;;;;;0.87;0.87;;;;;;;3.86;100.00;100462.53;5051435;28;20209;-63
2023/01/03 02:03:31;;;;;;;0.67;0.67;;;;;;;3.88;100.00;100463.38;5051479;28;20228;-63
2023/01/03 02:05:59;;;;;;;1.07;1.07;;;;;;;3.81;100.00;100450.63;5051417;28;20201;-63
2023/01/03 02:08:25;;;;;;;0.57;0.57;;;;;;;3.83;100.00;100454.88;5051585;28;20201;-63
2023/01/03 02:11:12;;;;;;;0.60;0.60;;;;;;;3.84;100.00;100459.13;5051193;28;20197;-63
2023/01/03 02:13:49;;;;;;;0.50;0.50;;;;;;;3.81;100.00;100451.47;5051467;28;20224;-63
2023/01/03 02:16:29;;;;;;;0.70;0.70;;;;;;;3.81;100.00;100450.63;5049869;28;20196;-64
2023/01/03 02:19:11;;;;;;;0.50;0.50;;;;;;;3.71;100.00;100434.41;5051254;28;20219;-64
2023/01/03 02:22:07;;;;;;;0.70;0.70;;;;;;;3.78;100.00;100443.78;5051160;28;20193;-64
2023/01/03 02:24:59;;;;;;;0.70;0.70;;;;;;;3.78;100.00;100448.03;5047913;28;20573;-63
2023/01/03 02:28:04;;;;;;;0.60;0.60;;;;;;;3.69;100.00;100434.38;5051097;28;20224;-64
2023/01/03 02:30:39;;;;;;;0.73;0.73;;;;;;;3.69;100.00;100446.22;5051272;28;20668;-64
2023/01/03 02:33:24;;;;;;;0.60;0.60;;;;;;;3.71;100.00;100439.50;5050096;28;20254;-64
2023/01/03 02:36:00;;;;;;;0.57;0.57;;;;;;;3.70;100.00;100437.78;5051096;28;20200;-63
2023/01/03 02:38:39;;;;;;;0.70;0.70;;;;;;;3.72;100.00;100440.34;5049406;28;20216;-64
2023/01/03 02:41:10;;;;;;;0.63;0.63;;;;;;;3.68;100.00;100435.22;5051080;28;20588;-64
2023/01/03 02:43:45;;;;;;;0.80;0.80;;;;;;;3.66;100.00;100441.09;5050070;28;20254;-64
2023/01/03 02:46:17;;;;;;;0.93;0.93;;;;;;;3.65;100.00;100434.34;5050870;28;20270;-64
2023/01/03 02:48:51;;;;;;;0.80;0.80;;;;;;;3.63;100.00;100435.97;5050872;28;20204;-64
2023/01/03 02:51:22;;;;;;;0.50;0.50;;;;;;;3.61;100.00;100440.19;5050655;28;20200;-64
2023/01/03 02:53:50;;;;;;;1.33;1.33;;;;;;;3.58;100.00;100442.69;5051044;28;20197;-64
2023/01/03 02:56:24;;;;;;;0.63;0.63;;;;;;;3.57;100.00;100435.91;5049424;28;20519;-63
2023/01/03 02:58:56;;;;;;;0.70;0.70;;;;;;;3.56;100.00;100436.72;5050251;28;20213;-64
2023/01/03 03:01:26;;;;;;;2.23;2.13;;;;;;;3.51;100.00;100438.34;5050253;28;20208;-64
2023/01/03 03:03:53;;;;;;;0.50;0.50;;;;;;;3.50;100.00;100440.03;5050507;28;20229;-64
2023/01/03 03:06:26;;;;;;;0.80;0.80;;;;;;;3.51;100.00;100441.75;5050283;28;20205;-64
2023/01/03 03:08:53;;;;;;;0.60;0.60;;;;;;;3.40;100.00;100427.19;5050723;28;20197;-64
2023/01/03 03:14:09;;;;;;;1.27;1.27;;;;;;;3.39;100.00;100441.56;5048735;28;20210;-64
2023/01/03 03:16:48;;;;;;;0.70;0.70;;;;;;;3.37;100.00;100432.22;5050080;28;20207;-64
2023/01/03 03:25:09;;;;;;;0.70;0.70;;;;;;;3.28;100.00;100427.00;5050451;28;20243;-63
2023/01/03 03:30:25;;;;;;;0.80;0.80;;;;;;;3.25;100.00;100424.44;5049833;28;20211;-63
2023/01/03 03:33:00;;;;;;;0.60;0.60;;;;;;;3.31;100.00;100439.72;5049748;28;20688;-64
2023/01/03 03:35:32;;;;;;;0.60;0.60;;;;;;;3.31;100.00;100432.13;5050007;28;20200;-64
2023/01/03 03:38:03;;;;;;;0.63;0.63;;;;;;;3.23;100.00;100419.34;5049113;28;20580;-63
2023/01/03 03:46:16;;;;;;;0.70;0.70;;;;;;;3.28;100.00;100427.88;5050051;28;20565;-64
2023/01/03 03:51:40;;;;;;;0.50;0.50;;;;;;;3.26;100.00;100428.69;5050062;28;20691;-64
2023/01/03 03:54:12;;;;;;;0.50;0.50;;;;;;;3.24;100.00;100426.09;5050669;28;20866;-64
2023/01/03 03:56:42;;;;;;;0.67;0.67;;;;;;;3.21;100.00;100430.25;5054173;28;20197;-64
2023/01/03 03:59:11;;;;;;;0.60;0.60;;;;;;;3.13;100.00;100428.47;5054018;28;20212;-64
2023/01/03 04:01:40;;;;;;;0.60;0.60;;;;;;;3.16;100.00;100430.22;5053747;28;20611;-64
2023/01/03 04:04:15;;;;;;;0.60;0.60;;;;;;;3.18;100.00;100431.94;5054046;28;20228;-64
2023/01/03 04:06:46;;;;;;;0.53;0.53;;;;;;;3.18;100.00;100426.88;5054151;28;20557;-64
2023/01/03 04:09:14;;;;;;;0.50;0.50;;;;;;;3.19;100.00;100425.19;5054044;28;20193;-64
2023/01/03 04:11:41;;;;;;;0.70;0.70;;;;;;;3.17;100.00;100425.16;5053612;28;20208;-64
2023/01/03 04:14:08;;;;;;;0.50;0.50;;;;;;;3.13;100.00;100423.38;5051266;28;20258;-64
2023/01/03 04:16:36;;;;;;;0.53;0.53;;;;;;;3.14;100.00;100422.56;5054028;28;20197;-64
2023/01/03 04:19:03;;;;;;;0.60;0.60;;;;;;;3.15;100.00;100421.75;5053722;28;20212;-64
2023/01/03 04:21:31;;;;;;;0.60;0.60;;;;;;;3.11;100.00;100427.59;5053641;28;20687;-64
2023/01/03 04:23:57;;;;;;;0.60;0.60;;;;;;;3.12;100.00;100426.78;5053396;28;20668;-63
2023/01/03 04:26:24;;;;;;;0.50;0.50;;;;;;;3.13;100.00;100433.53;5049369;28;20213;-64
2023/01/03 04:28:51;;;;;;;0.50;0.50;;;;;;;3.08;100.00;100425.00;5052853;28;20196;-64
2023/01/03 04:31:18;;;;;;;0.50;0.50;;;;;;;3.07;100.00;100425.84;5053250;28;20197;-63
2023/01/03 04:33:45;;;;;;;0.60;0.60;;;;;;;3.06;100.00;100425.81;5053435;28;20665;-63
2023/01/03 04:36:11;;;;;;;4.67;4.47;;;;;;;3.06;100.00;100436.81;5053257;28;20197;-63
2023/01/03 04:38:39;;;;;;;0.53;0.53;;;;;;;3.00;100.00;100426.59;5052883;28;20201;-63
2023/01/03 04:41:08;;;;;;;0.80;0.80;;;;;;;2.96;100.00;100439.16;5053207;28;20197;-63
2023/01/03 04:46:19;;;;;;;0.60;0.60;;;;;;;2.93;100.00;100429.84;5053160;28;20212;-64
2023/01/03 04:48:46;;;;;;;0.90;0.90;;;;;;;2.98;100.00;100433.28;5052929;28;20208;-63
2023/01/03 04:51:13;;;;;;;0.70;0.70;;;;;;;2.95;100.00;100432.38;5052911;28;20207;-64
2023/01/03 04:53:41;;;;;;;0.80;0.80;;;;;;;2.95;100.00;100433.22;5052708;28;20246;-63
2023/01/03 04:56:08;;;;;;;0.53;0.53;;;;;;;2.93;100.00;100434.91;5051956;28;20201;-64
2023/01/03 04:58:35;;;;;;;0.70;0.70;;;;;;;2.94;100.00;100435.75;5052259;28;20209;-63
2023/01/03 05:01:03;;;;;;;0.70;0.70;;;;;;;2.86;100.00;100443.22;5052980;28;20212;-63
2023/01/03 05:03:31;;;;;;;1.27;1.27;;;;;;;2.84;100.00;100441.50;5052280;28;20227;-63
2023/01/03 05:05:59;;;;;;;0.60;0.60;;;;;;;2.81;100.00;100444.78;5052297;28;20193;-63
2023/01/03 05:08:26;;;;;;;0.60;0.60;;;;;;;2.86;100.00;100452.47;5052637;28;20295;-63
2023/01/03 05:10:56;;;;;;;0.50;0.50;;;;;;;2.85;100.00;100460.91;5052737;28;20561;-63
2023/01/03 05:13:23;;;;;;;0.60;0.60;;;;;;;2.83;100.00;100450.75;5052416;28;20204;-63
2023/01/03 05:15:50;;;;;;;0.50;0.50;;;;;;;2.84;100.00;100449.94;5051217;28;20204;-63
2023/01/03 05:18:17;;;;;;;0.70;0.70;;;;;;;2.82;100.00;100449.03;5052425;28;20216;-63
2023/01/03 05:26:16;;;;;;;0.60;0.60;;;;;;;2.74;100.00;100444.69;5052060;28;20203;-63
2023/01/03 05:28:45;;;;;;;0.63;0.63;;;;;;;2.70;100.00;100447.97;5052004;28;20668;-63
2023/01/03 05:31:12;;;;;;;0.63;0.63;;;;;;;2.70;100.00;100448.84;5052415;28;20201;-63
2023/01/03 05:33:40;;;;;;;0.63;0.63;;;;;;;2.54;100.00;100421.53;5052298;28;20208;-63
2023/01/03 05:36:08;;;;;;;0.50;0.50;;;;;;;2.76;100.00;100455.69;5052162;28;20216;-63
2023/01/03 05:38:36;;;;;;;1.00;1.00;;;;;;;2.74;100.00;100458.19;5052234;28;20197;-63
2023/01/03 05:41:02;;;;;;;0.80;0.80;;;;;;;2.75;100.00;100459.06;5051546;28;20217;-63
2023/01/03 05:43:31;;;;;;;0.70;0.70;;;;;;;2.76;100.00;100459.06;5051896;28;20201;-64
2023/01/03 05:45:58;;;;;;;0.50;0.50;;;;;;;2.70;100.00;100451.38;5051657;28;20255;-63
2023/01/03 05:48:24;;;;;;;0.50;0.50;;;;;;;2.73;100.00;100456.47;5052126;28;20200;-63
2023/01/03 05:50:51;;;;;;;0.60;0.60;;;;;;;2.75;100.00;100461.59;5051985;28;20549;-63
2023/01/03 05:53:18;;;;;;;0.70;0.70;;;;;;;2.75;100.00;100459.06;5052180;28;20592;-63
2023/01/03 05:55:45;;;;;;;0.60;0.60;;;;;;;2.76;100.00;100461.59;5051759;28;20192;-63
2023/01/03 05:58:12;;;;;;;0.70;0.70;;;;;;;2.74;100.00;100453.13;5051493;28;20196;-63
2023/01/03 06:00:40;;;;;;;0.70;0.70;;;;;;;2.78;100.00;100465.00;5051317;28;20225;-63
2023/01/03 06:03:07;;;;;;;0.60;0.60;;;;;;;2.74;100.00;100465.78;5051419;28;20193;-63
2023/01/03 06:05:34;;;;;;;0.60;0.60;;;;;;;2.74;100.00;100478.44;5051518;28;20200;-63
2023/01/03 06:08:01;;;;;;;0.60;0.60;;;;;;;2.76;100.00;100470.88;5051601;28;20200;-63
2023/01/03 06:10:28;;;;;;;0.60;0.60;;;;;;;2.74;100.00;100480.97;5046160;28;20752;-64
2023/01/03 06:12:55;;;;;;;0.60;0.60;;;;;;;2.72;100.00;100485.16;5044929;28;20693;-63
2023/01/03 06:15:22;;;;;;;0.60;0.60;;;;;;;2.71;100.00;100480.94;5043322;28;20673;-63
2023/01/03 06:17:56;;;;;;;0.77;0.77;;;;;;;2.75;100.00;100485.19;5044150;28;20224;-63
2023/01/03 06:20:24;;;;;;;0.80;0.80;;;;;;;2.77;100.00;100485.25;5050720;28;20222;-63
2023/01/03 06:22:51;;;;;;;0.50;0.50;;;;;;;2.75;100.00;100480.13;5050862;28;20270;-63
2023/01/03 06:25:18;;;;;;;0.60;0.60;;;;;;;2.72;100.00;100480.09;5050809;28;20208;-63
2023/01/03 06:27:45;;;;;;;0.63;0.63;;;;;;;2.73;100.00;100481.81;5051420;28;20585;-63
2023/01/03 06:30:14;;;;;;;1.47;1.43;;;;;;;2.75;100.00;100481.84;5051238;28;20196;-63
2023/01/03 06:32:41;;;;;;;0.60;0.60;;;;;;;2.75;100.00;100480.13;5050750;28;20684;-63
2023/01/03 06:35:10;;;;;;;0.67;0.67;;;;;;;2.78;100.00;100484.44;5049635;28;20255;-63
2023/01/03 06:37:37;;;;;;;0.70;0.70;;;;;;;2.79;100.00;100481.91;5045813;28;20208;-63
2023/01/03 06:40:04;;;;;;;0.60;0.60;;;;;;;2.78;100.00;100482.72;5048441;28;20224;-63
2023/01/03 06:42:44;;;;;;;0.70;0.70;;;;;;;2.82;100.00;100486.16;5050593;28;20200;-63
2023/01/03 06:53:34;;;;;;;0.50;0.50;;;;;;;2.84;100.00;100480.31;5047834;28;20297;-63
2023/01/03 06:56:01;;;;;;;0.97;0.97;;;;;;;2.85;100.00;100478.63;5048349;28;20243;-64
2023/01/03 06:58:28;;;;;;;1.10;1.10;;;;;;;2.72;100.00;100464.88;5048364;28;20274;-63
2023/01/03 07:00:57;;;;;;;0.90;0.90;;;;;;;2.85;100.00;100473.56;5045325;28;20212;-64
2023/01/03 07:03:24;;;;;;;0.50;0.50;;;;;;;2.81;100.00;100457.44;5049433;28;20232;-63
2023/01/03 07:05:52;;;;;;;0.60;0.60;;;;;;;2.96;100.00;100480.53;5048491;28;20200;-64
2023/01/03 07:08:19;;;;;;;0.63;0.63;;;;;;;3.00;100.00;100482.31;5048883;28;20375;-63
2023/01/03 07:10:45;;;;;;;0.60;0.60;;;;;;;3.03;100.00;100476.44;5049916;28;20193;-63
2023/01/03 07:15:56;;;;;;;0.60;0.60;;;;;;;3.06;100.00;100482.41;5044613;28;20343;-63
2023/01/03 07:18:25;;;;;;;0.70;0.70;;;;;;;3.10;100.00;100485.84;5049984;28;20699;-64
2023/01/03 07:20:54;;;;;;;0.70;0.70;;;;;;;3.13;100.00;100474.06;5044913;28;20228;-64
2023/01/03 07:23:21;;;;;;;0.77;0.77;;;;;;;3.15;100.00;100477.50;5047285;28;20221;-63
2023/01/03 07:25:48;;;;;;;0.60;0.60;;;;;;;3.14;100.00;100465.63;5046511;28;20203;-63
2023/01/03 07:28:16;;;;;;;0.80;0.80;;;;;;;3.25;100.00;100487.78;5049657;28;20849;-63
2023/01/03 07:30:44;;;;;;;0.60;0.60;;;;;;;3.29;100.00;100485.31;5047438;28;20634;-62
2023/01/03 07:33:13;;;;;;;0.50;0.50;;;;;;;3.34;100.00;100487.91;5047398;28;20201;-64
2023/01/03 07:35:40;;;;;;;0.90;0.90;;;;;;;3.41;100.00;100484.66;5047854;28;20274;-64
2023/01/03 07:38:09;;;;;;;0.60;0.60;;;;;;;3.46;100.00;100483.03;5046484;28;20227;-63
2023/01/03 07:40:36;;;;;;;0.60;0.60;;;;;;;3.48;100.00;100471.25;5043678;28;20227;-62
2023/01/03 07:45:47;;;;;;;0.67;0.67;;;;;;;3.60;100.00;100481.56;5044389;28;20694;-66
2023/01/03 07:48:14;;;;;;;0.50;0.50;;;;;;;3.65;100.00;100485.88;5045809;28;20208;-62
2023/01/03 07:50:42;;;;;;;0.70;0.70;;;;;;;3.60;100.00;100466.38;5049068;28;20631;-64
2023/01/03 07:53:15;;;;;;;0.60;0.60;;;;;;;3.76;100.00;100488.59;5045601;28;20255;-62
2023/01/03 07:55:43;;;;;;;0.50;0.50;;;;;;;3.81;100.00;100475.97;5048948;28;20288;-63
2023/01/03 07:58:10;;;;;;;0.50;0.50;;;;;;;3.92;100.00;100475.28;5047833;28;20204;-62
2023/01/03 08:00:37;;;;;;;0.63;0.63;;;;;;;4.00;100.00;100478.78;5049082;28;20221;-62
2023/01/03 08:03:04;;;;;;;0.50;0.50;;;;;;;4.13;100.00;100475.59;5048748;28;20255;-62
2023/01/03 08:05:30;;;;;;;0.63;0.63;;;;;;;4.27;100.00;100482.50;5048673;28;20292;-62
2023/01/03 08:07:57;;;;;;;0.73;0.73;;;;;;;4.39;100.00;100480.13;5048864;28;20270;-62
2023/01/03 08:13:19;;;;;;;0.50;0.50;;;;;;;4.65;100.00;100471.94;5048507;28;20232;-62
2023/01/03 08:15:48;;;;;;;0.53;0.53;;;;;;;4.80;100.00;100478.88;5048541;28;20200;-63
2023/01/03 08:18:15;;;;;;;0.50;0.50;;;;;;;4.90;100.00;100475.59;5047831;28;20216;-63
2023/01/03 08:20:42;;;;;;;0.50;0.50;;;;;;;5.10;100.00;100481.75;5047200;28;20221;-63
2023/01/03 08:23:09;;;;;;;1.23;1.23;;;;;;;5.16;100.00;100453.81;5047854;28;20219;-63
2023/01/03 08:25:38;;;;;;;0.70;0.70;;;;;;;5.44;100.00;100469.28;5048695;28;20216;-63
2023/01/03 08:28:06;;;;;;;2.13;2.13;;;;;;;5.50;100.00;100467.63;5049167;28;20250;-64
2023/01/03 08:30:37;;;;;;;0.67;0.67;;;;;;;5.60;100.00;100471.09;5048684;28;20592;-64
2023/01/03 08:33:06;;;;;;;0.50;0.50;;;;;;;5.70;100.00;100467.78;5047201;28;20215;-63
2023/01/03 08:35:36;;;;;;;0.57;0.57;;;;;;;5.81;100.00;100463.63;5045737;28;20251;-63
2023/01/03 08:38:06;;;;;;;1.00;1.00;;;;;;;5.96;100.00;100466.28;5038492;28;20205;-63
2023/01/03 08:40:36;;;;;;;1.03;1.03;;;;;;;6.10;100.00;100467.22;5041219;28;20682;-63
2023/01/03 08:43:06;;;;;;;0.50;0.50;;;;;;;6.24;100.00;100459.59;5050478;28;20219;-64
2023/01/03 08:45:33;;;;;;;1.10;1.00;;;;;;;6.36;100.00;100459.69;5051883;28;20212;-63
2023/01/03 08:48:01;;;;;;;0.80;0.80;;;;;;;6.38;100.00;100429.09;5052018;28;20212;-63
2023/01/03 08:50:30;;;;;;;0.90;0.90;;;;;;;6.56;100.00;100437.66;5052248;28;20204;-64
2023/01/03 08:52:57;;;;;;;2.50;2.30;;;;;;;6.77;100.00;100441.94;5052052;28;20193;-63
2023/01/03 08:55:24;;;;;;;1.20;1.20;;;;;;;6.83;100.00;100442.81;5053061;28;20196;-64
2023/01/03 08:57:50;;;;;;;0.80;0.80;;;;;;;6.91;100.00;100442.84;5051563;28;20208;-64
2023/01/03 09:00:19;;;;;;;3.10;2.10;;;;;;;7.01;100.00;100439.41;5052007;28;20282;-64
2023/01/03 09:02:46;;;;;;;0.63;0.63;;;;;;;7.06;100.00;100425.00;5053188;28;20231;-64
2023/01/03 09:05:13;;;;;;;1.53;1.53;;;;;;;7.22;100.00;100441.13;5052481;28;20224;-63
2023/01/03 09:07:39;;;;;;;0.67;0.67;;;;;;;7.32;100.00;100443.69;5047953;28;20208;-62
2023/01/03 09:10:07;;;;;;;0.40;0.40;;;;;;;7.40;100.00;100438.56;5051720;28;20611;-61
2023/01/03 09:12:34;;;;;;;0.40;0.40;;;;;;;7.50;100.00;100431.75;5051834;28;20656;-63
2023/01/03 09:15:00;;;;;;;1.13;1.13;;;;;;;7.58;100.00;100430.06;5051933;28;20201;-63
2023/01/03 09:17:30;;;;;;;0.90;0.90;;;;;;;7.74;100.00;100431.72;5051842;28;20638;-61
2023/01/03 09:19:56;;;;;;;0.50;0.50;;;;;;;7.79;100.00;100423.19;5050185;28;20299;-62
2023/01/03 09:22:23;;;;;;;0.50;0.50;;;;;;;7.85;100.00;100415.50;5051008;28;20197;-63
2023/01/03 09:24:50;;;;;;;0.67;0.67;;;;;;;7.99;100.00;100412.94;5051773;28;20215;-62
2023/01/03 09:27:17;;;;;;;0.73;0.73;;;;;;;8.12;100.00;100414.56;5051490;28;20208;-63
2023/01/03 09:29:43;;;;;;;0.93;0.93;;;;;;;8.20;100.00;100397.53;5051692;28;20251;-63
2023/01/03 09:32:10;;;;;;;0.57;0.57;;;;;;;8.37;100.00;100400.84;5049596;28;20216;-63
2023/01/03 09:34:38;;;;;;;0.50;0.50;;;;;;;8.46;100.00;100399.13;5051831;28;20236;-63
2023/01/03 09:37:05;;;;;;;0.50;0.50;;;;;;;8.54;100.00;100389.69;5049885;28;20649;-62
2023/01/03 09:39:32;;;;;;;0.50;0.50;;;;;;;8.67;100.00;100383.66;5050929;28;20687;-63
2023/01/03 09:44:53;;;;;;;0.70;0.70;;;;;;;8.93;100.00;100371.53;5015908;28;20193;-63
2023/01/03 09:47:24;;;;;;;0.50;0.50;;;;;;;9.00;100.00;100375.75;5051447;28;20204;-63
2023/01/03 09:49:54;;;;;;;1.07;1.07;;;;;;;9.16;100.00;100372.19;5049978;28;20757;-63
2023/01/03 10:04:04;;;;;;;0.47;0.47;;;;;;;9.99;99.77;100349.94;5048072;28;20826;-62
2023/01/03 10:06:39;;;;;;;0.83;0.83;;;;;;;10.11;98.47;100338.69;5045879;28;20270;-63
2023/01/03 10:09:18;;;;;;;0.60;0.60;;;;;;;10.27;98.10;100335.94;5044064;28;20200;-63
2023/01/03 10:11:56;;;;;;;0.63;0.63;;;;;;;10.39;96.58;100337.47;5046865;28;20200;-63
2023/01/03 10:14:38;;;;;;;3.23;1.00;;;;;;;10.53;95.51;100328.69;5047008;28;20205;-63
2023/01/03 10:17:18;;;;;;;1.13;1.13;;;;;;;10.52;95.40;100342.41;5045015;28;20206;-63
2023/01/03 10:20:23;;;;;;;7.77;2.47;;;;;;;10.57;95.29;100333.78;5044467;28;20200;-63
2023/01/03 10:22:53;;;;;;;0.50;0.50;;;;;;;10.68;94.03;100330.19;5046583;28;20203;-63
2023/01/03 10:25:23;;;;;;;1.17;1.17;;;;;;;10.69;93.12;100329.34;5045193;28;20197;-63
2023/01/03 10:27:53;;;;;;;0.50;0.50;;;;;;;10.80;92.78;100326.56;5043113;28;20220;-63
2023/01/03 10:30:31;;;;;;;0.53;0.53;;;;;;;10.94;93.60;100324.63;5044651;28;20252;-63
2023/01/03 10:33:28;;;;;;;0.40;0.40;;;;;;;10.98;93.63;100310.91;5046357;28;20197;-63
2023/01/03 10:35:55;;;;;;;0.73;0.73;;;;;;;11.08;93.15;100320.13;5047945;28;20652;-64
2023/01/03 10:38:24;;;;;;;0.93;0.93;;;;;;;11.06;92.13;100306.47;5047844;28;20291;-63
2023/01/03 10:40:54;;;;;;;0.70;0.70;;;;;;;11.24;92.13;100308.72;5047019;28;20234;-64
2023/01/03 10:43:28;;;;;;;0.83;0.83;;;;;;;11.26;91.06;100286.41;5047365;28;20679;-64
2023/01/03 10:45:57;;;;;;;0.50;0.50;;;;;;;11.39;89.79;100290.44;5048493;28;20201;-64
2023/01/03 10:48:26;;;;;;;0.60;0.60;;;;;;;11.44;89.07;100291.19;5047272;28;20205;-64
2023/01/03 10:50:53;;;;;;;1.03;1.03;;;;;;;11.53;88.60;100293.56;5047562;28;20220;-64
2023/01/03 10:53:22;;;;;;;0.60;0.60;;;;;;;11.65;87.56;100291.66;5048621;28;20210;-63
2023/01/03 10:55:52;;;;;;;0.57;0.57;;;;;;;11.67;87.66;100280.47;5043006;28;20267;-64
2023/01/03 10:58:24;;;;;;;0.67;0.67;;;;;;;11.78;87.05;100280.28;5046657;28;20200;-63
2023/01/03 11:00:53;;;;;;;0.40;0.40;;;;;;;11.84;86.55;100273.28;5044444;28;20220;-64
2023/01/03 11:03:21;;;;;;;0.50;0.50;;;;;;;11.97;86.42;100271.28;5043686;28;20662;-63
2023/01/03 11:06:06;;;;;;;0.50;0.50;;;;;;;12.05;86.68;100262.53;5046388;28;20689;-64
2023/01/03 11:08:43;;;;;;;0.50;0.50;;;;;;;12.06;85.41;100258.22;5047263;28;20201;-63
2023/01/03 11:11:28;;;;;;;0.80;0.80;;;;;;;12.09;85.68;100260.72;5046586;28;20207;-63
2023/01/03 11:14:14;;;;;;;0.50;0.50;;;;;;;12.21;85.02;100255.34;5048482;28;20338;-63
2023/01/03 11:16:40;;;;;;;0.47;0.47;;;;;;;12.24;84.20;100250.13;5047466;28;20204;-63
2023/01/03 11:19:17;;;;;;;0.50;0.50;;;;;;;12.28;84.02;100244.00;5045233;28;20738;-63
2023/01/03 11:21:49;;;;;;;0.47;0.47;;;;;;;12.34;83.37;100251.56;5047518;28;20274;-63
2023/01/03 11:24:28;;;;;;;0.80;0.80;;;;;;;12.39;83.25;100249.75;5048107;28;20219;-63
2023/01/03 11:27:07;;;;;;;0.70;0.70;;;;;;;12.44;83.62;100237.59;5048685;28;20207;-64
2023/01/03 11:29:58;;;;;;;0.50;0.50;;;;;;;12.53;83.61;100228.84;5045278;28;20208;-64
2023/01/03 11:32:40;;;;;;;0.60;0.60;;;;;;;12.57;82.87;100233.84;5048507;28;20205;-63
2023/01/03 11:35:30;;;;;;;0.50;0.50;;;;;;;12.64;82.85;100230.25;5048780;28;20204;-63
2023/01/03 11:38:11;;;;;;;0.90;0.90;;;;;;;12.76;82.91;100220.53;5047377;28;20207;-63
2023/01/03 11:40:46;;;;;;;2.50;1.60;;;;;;;12.84;82.05;100221.19;5049475;28;20205;-64
2023/01/03 11:43:31;;;;;;;0.50;0.50;;;;;;;12.91;81.58;100217.56;5047380;28;20193;-64
2023/01/03 11:46:32;;;;;;;0.50;0.50;;;;;;;12.95;81.58;100211.47;5049582;28;20208;-63
2023/01/03 11:49:20;;;;;;;0.70;0.70;;;;;;;13.03;81.80;100206.94;5049743;28;20204;-63
2023/01/03 11:51:59;;;;;;;0.67;0.67;;;;;;;13.09;80.62;100201.66;5042956;28;20204;-63
2023/01/03 11:54:47;;;;;;;0.60;0.60;;;;;;;13.08;80.73;100202.50;5043037;28;20202;-63
2023/01/03 11:57:23;;;;;;;0.50;0.50;;;;;;;13.20;79.92;100197.06;5043548;28;20217;-63
2023/01/03 12:00:02;;;;;;;0.70;0.70;;;;;;;13.24;80.66;100190.94;5047007;28;20251;-63
2023/01/03 12:03:08;;;;;;;0.70;0.70;;;;;;;13.30;79.59;100193.34;5045428;28;20216;-63
2023/01/03 12:05:42;;;;;;;0.90;0.90;;;;;;;13.39;79.51;100187.91;5048111;28;20668;-63
2023/01/03 12:08:46;;;;;;;0.70;0.70;;;;;;;13.47;78.37;100187.69;5049062;28;20204;-63
2023/01/03 12:11:47;;;;;;;0.60;0.60;;;;;;;13.49;79.09;100186.75;5013130;28;20193;-64
2023/01/03 12:14:21;;;;;;;0.50;0.50;;;;;;;13.54;78.58;100184.88;5045106;28;20200;-64
2023/01/03 12:16:56;;;;;;;0.40;0.40;;;;;;;13.51;77.51;100182.38;5048295;28;20203;-63
2023/01/03 12:19:33;;;;;;;1.20;1.20;;;;;;;13.58;77.88;100172.75;5046015;28;20215;-64
2023/01/03 12:22:07;;;;;;;0.47;0.47;;;;;;;13.66;77.59;100174.22;5048628;28;20287;-63
2023/01/03 12:24:40;;;;;;;0.43;0.43;;;;;;;13.62;77.63;100157.16;5050196;28;20206;-64
2023/01/03 12:27:14;;;;;;;0.60;0.60;;;;;;;13.75;77.35;100169.66;5051898;28;20196;-63
2023/01/03 12:29:49;;;;;;;0.57;0.57;;;;;;;13.76;77.86;100171.38;5048688;28;20211;-64
2023/01/03 12:32:24;;;;;;;0.93;0.93;;;;;;;13.75;78.11;100162.78;5051424;28;20195;-63
2023/01/03 12:34:58;;;;;;;0.70;0.70;;;;;;;13.85;78.02;100171.06;5051346;28;20222;-63
2023/01/03 12:37:30;;;;;;;0.50;0.50;;;;;;;13.88;77.35;100173.56;5049913;28;20665;-63
2023/01/03 12:40:00;;;;;;;0.60;0.60;;;;;;;13.94;77.33;100168.19;5051928;28;20671;-63
2023/01/03 12:42:36;;;;;;;0.60;0.60;;;;;;;13.94;76.91;100152.72;5053444;28;20219;-62
2023/01/03 12:45:23;;;;;;;0.43;0.43;;;;;;;14.00;76.44;100168.00;5052998;28;20202;-63
2023/01/03 12:47:56;;;;;;;1.13;1.13;;;;;;;14.01;76.02;100160.22;5053213;28;20203;-63